Time;durP1;ratioP1;P1;durP2;ratioP2;P2;SDS_P1;SDS_P2;PMS_P1;PMS_P2;Temp;Humidity;BMP_temperature;BMP_pressure;BME280_temperature;BME280_humidity;BME280_pressure;Samples;Min_cycle;Max_cycle;Signal;HPM_P1;HPM_P2
2022/10/23 00:00:09;;;;;;;10.55;7.15;;;10.60;1.00;;;;;;5040057;28;20182;-81
2022/10/23 00:02:34;;;;;;;10.33;6.73;;;10.00;1.00;;;;;;5039626;28;20265;-81
2022/10/23 00:05:00;;;;;;;13.03;7.67;;;10.00;1.00;;;;;;5041035;28;20413;-78
2022/10/23 00:07:25;;;;;;;7.73;6.57;;;10.10;99.90;;;;;;5040276;28;20198;-81
2022/10/23 00:09:51;;;;;;;8.57;6.80;;;10.30;1.00;;;;;;5036708;28;20193;-81
2022/10/23 00:12:17;;;;;;;9.97;7.13;;;10.00;1.00;;;;;;5037287;28;20222;-78
2022/10/23 00:14:43;;;;;;;9.33;7.17;;;10.00;99.90;;;;;;5039024;28;20277;-81
2022/10/23 00:17:11;;;;;;;9.48;7.40;;;9.90;1.00;;;;;;5038499;28;20681;-82
2022/10/23 00:19:36;;;;;;;7.68;6.75;;;9.90;50.50;;;;;;5039165;28;20676;-78
2022/10/23 00:22:02;;;;;;;8.93;7.30;;;9.90;99.90;;;;;;5038519;28;20178;-78
2022/10/23 00:24:28;;;;;;;10.87;6.53;;;9.90;1.00;;;;;;5037787;28;21183;-80
2022/10/23 00:26:53;;;;;;;8.75;6.32;;;9.80;1.00;;;;;;5038036;28;20235;-82
2022/10/23 00:29:19;;;;;;;12.57;7.17;;;10.80;1.00;;;;;;5036104;28;20233;-81
2022/10/23 00:31:44;;;;;;;8.57;6.40;;;9.80;1.00;;;;;;5039167;28;20175;-79
2022/10/23 00:34:10;;;;;;;10.25;6.20;;;9.70;1.00;;;;;;5034969;28;21190;-82
2022/10/23 00:36:36;;;;;;;9.10;5.95;;;10.10;99.90;;;;;;5038376;28;20187;-78
2022/10/23 00:39:03;;;;;;;9.80;6.50;;;10.80;93.70;;;;;;5038006;28;20854;-78
2022/10/23 00:41:31;;;;;;;10.53;6.67;;;9.70;20.30;;;;;;5037420;28;20209;-81
2022/10/23 00:44:09;;;;;;;8.85;6.43;;;10.20;1.00;;;;;;5037178;28;20183;-80
2022/10/23 00:46:37;;;;;;;7.53;5.93;;;9.80;1.00;;;;;;5039492;28;20167;-79
2022/10/23 00:49:04;;;;;;;7.77;6.30;;;9.80;99.90;;;;;;5037282;28;21176;-81
2022/10/23 00:51:37;;;;;;;8.43;6.00;;;10.90;99.90;;;;;;5037787;28;20175;-81
2022/10/23 00:54:03;;;;;;;7.60;5.95;;;11.10;1.00;;;;;;5036987;28;20559;-82
2022/10/23 00:56:31;;;;;;;9.52;6.47;;;9.90;1.00;;;;;;5039295;28;20198;-82
2022/10/23 00:58:57;;;;;;;9.03;6.33;;;10.70;1.00;;;;;;5036937;28;20178;-82
2022/10/23 01:01:23;;;;;;;7.57;5.90;;;10.10;1.00;;;;;;5038216;28;20278;-78
2022/10/23 01:03:49;;;;;;;6.17;5.57;;;10.00;1.00;;;;;;5037824;28;20190;-79
2022/10/23 01:06:42;;;;;;;7.77;5.97;;;10.70;99.90;;;;;;5038411;28;20368;-80
2022/10/23 01:09:29;;;;;;;10.03;6.47;;;10.10;1.00;;;;;;5035486;28;20191;-79
2022/10/23 01:12:06;;;;;;;8.10;6.20;;;10.10;99.90;;;;;;5037416;28;20220;-79
2022/10/23 01:14:46;;;;;;;8.73;6.27;;;10.20;1.00;;;;;;5037766;28;20216;-80
2022/10/23 01:17:37;;;;;;;8.80;6.60;;;10.10;99.90;;;;;;5036863;28;20193;-79
2022/10/23 01:20:18;;;;;;;10.17;6.37;;;10.10;1.00;;;;;;5036451;28;20183;-78
2022/10/23 01:22:43;;;;;;;6.90;6.13;;;10.10;1.00;;;;;;5037991;28;20316;-78
2022/10/23 01:25:29;;;;;;;6.97;6.13;;;10.30;1.00;;;;;;5036554;28;20309;-81
2022/10/23 01:28:01;;;;;;;8.07;6.20;;;10.00;1.00;;;;;;5037585;28;20252;-81
2022/10/23 01:30:28;;;;;;;8.35;6.50;;;10.10;1.00;;;;;;5037820;28;20182;-81
2022/10/23 01:33:03;;;;;;;9.43;6.30;;;10.80;1.00;;;;;;5038290;28;20182;-78
2022/10/23 01:35:48;;;;;;;8.87;6.63;;;10.60;99.90;;;;;;5037886;28;20220;-79
2022/10/23 01:38:17;;;;;;;7.93;6.47;;;10.20;1.00;;;;;;5036637;28;20183;-79
2022/10/23 01:41:10;;;;;;;8.27;6.18;;;10.10;99.90;;;;;;5037712;28;20680;-81
2022/10/23 01:43:53;;;;;;;9.13;6.17;;;10.10;1.00;;;;;;5035568;28;20182;-78
2022/10/23 01:46:21;;;;;;;10.67;6.73;;;10.10;1.00;;;;;;5036519;28;20193;-81
2022/10/23 01:48:53;;;;;;;12.60;7.22;;;10.10;99.90;;;;;;5037264;28;20198;-81
2022/10/23 01:51:21;;;;;;;9.53;7.03;;;10.00;99.90;;;;;;5038054;28;20186;-80
2022/10/23 01:53:51;;;;;;;11.83;8.10;;;10.20;99.90;;;;;;5032667;28;20178;-80
2022/10/23 01:56:21;;;;;;;9.47;7.00;;;10.20;44.20;;;;;;5035185;28;20185;-79
2022/10/23 01:58:51;;;;;;;9.30;7.05;;;10.50;99.90;;;;;;5033762;28;20182;-78
2022/10/23 02:01:20;;;;;;;10.30;8.15;;;11.10;1.00;;;;;;5033555;28;20179;-80
2022/10/23 02:03:47;;;;;;;8.05;6.75;;;10.30;1.00;;;;;;5034280;28;20232;-80
2022/10/23 02:06:13;;;;;;;12.57;6.95;;;10.80;43.40;;;;;;5033748;28;20724;-80
2022/10/23 02:08:39;;;;;;;9.68;6.82;;;11.30;99.90;;;;;;5034191;28;20194;-82
2022/10/23 02:11:11;;;;;;;6.77;6.00;;;10.10;1.00;;;;;;5032528;28;20191;-79
2022/10/23 02:13:49;;;;;;;7.30;6.00;;;10.30;1.00;;;;;;5035221;28;20732;-81
2022/10/23 02:16:17;;;;;;;8.85;6.15;;;10.00;99.90;;;;;;5035156;28;20258;-81
2022/10/23 02:19:14;;;;;;;6.65;5.80;;;10.00;1.00;;;;;;5036587;28;20248;-81
2022/10/23 02:21:52;;;;;;;8.07;5.82;;;9.90;1.00;;;;;;5039191;28;20218;-78
2022/10/23 02:24:27;;;;;;;7.10;5.83;;;9.80;23.00;;;;;;5040774;28;20236;-81
2022/10/23 02:26:57;;;;;;;9.27;5.75;;;9.80;1.00;;;;;;5040032;28;20260;-79
2022/10/23 02:29:34;;;;;;;6.87;5.67;;;9.80;99.90;;;;;;5039622;28;20182;-81
2022/10/23 02:32:00;;;;;;;10.13;6.70;;;9.90;99.90;;;;;;5040285;28;20177;-78
2022/10/23 02:34:26;;;;;;;11.25;6.60;;;9.80;1.00;;;;;;5040058;28;20206;-82
2022/10/23 02:36:51;;;;;;;6.70;6.00;;;10.20;99.90;;;;;;5041179;28;20187;-80
2022/10/23 02:39:17;;;;;;;8.53;6.13;;;10.10;99.90;;;;;;5040235;28;20193;-79
2022/10/23 02:42:14;;;;;;;7.63;6.17;;;10.40;99.90;;;;;;5039638;28;20186;-80
2022/10/23 02:45:05;;;;;;;7.50;5.50;;;9.70;1.00;;;;;;5040283;28;20202;-79
2022/10/23 02:47:36;;;;;;;8.73;5.77;;;9.60;99.90;;;;;;5040804;28;20249;-80
2022/10/23 02:50:10;;;;;;;9.60;6.20;;;9.50;99.90;;;;;;5039801;28;20210;-80
2022/10/23 02:52:52;;;;;;;8.87;5.73;;;9.50;99.90;;;;;;5039111;28;20251;-80
2022/10/23 02:55:36;;;;;;;7.80;6.27;;;9.40;99.90;;;;;;5039754;28;20214;-82
2022/10/23 02:58:43;;;;;;;8.97;6.63;;;9.40;1.00;;;;;;5040102;28;20224;-84
2022/10/23 03:01:13;;;;;;;9.97;7.07;;;9.50;99.90;;;;;;4978766;28;20193;-79
2022/10/23 03:03:44;;;;;;;10.20;6.23;;;9.90;1.00;;;;;;4971112;28;20188;-82
2022/10/23 03:06:10;;;;;;;9.23;6.57;;;9.50;99.90;;;;;;5018085;28;20308;-80
2022/10/23 03:08:51;;;;;;;8.80;6.50;;;9.60;99.90;;;;;;5038723;28;20777;-81
2022/10/23 03:11:17;;;;;;;9.83;7.60;;;9.50;1.00;;;;;;5040769;28;20179;-80
2022/10/23 03:13:42;;;;;;;12.52;7.30;;;9.70;1.00;;;;;;5040054;28;20618;-77
2022/10/23 03:16:08;;;;;;;10.83;7.17;;;9.50;99.90;;;;;;5040667;28;20182;-80
2022/10/23 03:18:34;;;;;;;11.73;7.93;;;9.50;1.00;;;;;;5040220;28;20178;-80
2022/10/23 03:20:59;;;;;;;12.13;7.20;;;10.50;1.00;;;;;;5039871;28;20221;-80
2022/10/23 03:23:25;;;;;;;12.30;7.57;;;9.50;1.00;;;;;;5040176;28;20183;-77
2022/10/23 03:25:51;;;;;;;11.83;7.70;;;10.70;1.00;;;;;;5041328;28;20214;-82
2022/10/23 03:28:17;;;;;;;12.20;7.50;;;10.50;1.00;;;;;;5039773;28;20191;-79
2022/10/23 03:30:43;;;;;;;10.17;7.27;;;9.50;99.90;;;;;;5036519;28;20191;-80
2022/10/23 03:33:08;;;;;;;15.80;7.43;;;9.70;1.00;;;;;;5035774;28;20187;-80
2022/10/23 03:35:34;;;;;;;9.67;7.13;;;10.20;1.00;;;;;;5036910;28;20202;-81
2022/10/23 03:37:59;;;;;;;7.40;6.23;;;9.80;99.90;;;;;;5037578;28;20178;-80
2022/10/23 03:40:25;;;;;;;9.50;6.97;;;9.50;1.00;;;;;;5037718;28;20210;-80
2022/10/23 03:42:50;;;;;;;7.73;6.60;;;9.50;99.90;;;;;;5035883;28;20202;-80
2022/10/23 03:45:16;;;;;;;8.47;6.50;;;9.90;1.00;;;;;;5036449;28;20213;-78
2022/10/23 03:47:42;;;;;;;11.83;6.97;;;11.00;99.90;;;;;;5035834;28;20193;-80
2022/10/23 03:50:08;;;;;;;10.50;6.30;;;9.50;42.70;;;;;;5036695;28;20182;-81
2022/10/23 03:52:34;;;;;;;9.07;6.20;;;9.50;31.60;;;;;;5036274;28;20269;-80
2022/10/23 03:55:00;;;;;;;8.03;5.97;;;10.10;99.90;;;;;;5037146;28;20303;-81
2022/10/23 03:57:25;;;;;;;9.27;6.57;;;9.50;99.90;;;;;;5036305;28;20195;-80
2022/10/23 03:59:51;;;;;;;9.97;6.90;;;9.50;99.90;;;;;;5037236;28;20187;-81
2022/10/23 04:02:17;;;;;;;13.20;7.20;;;9.80;1.00;;;;;;5036721;28;20242;-79
2022/10/23 04:04:43;;;;;;;8.67;7.23;;;9.50;99.90;;;;;;5035298;28;20250;-78
2022/10/23 04:07:09;;;;;;;10.40;7.30;;;10.10;1.00;;;;;;5035795;28;20227;-77
2022/10/23 04:09:34;;;;;;;8.63;6.37;;;9.40;1.00;;;;;;5037781;28;20202;-80
2022/10/23 04:12:00;;;;;;;9.13;6.70;;;9.70;1.00;;;;;;5035758;28;20809;-80
2022/10/23 04:14:26;;;;;;;11.67;6.80;;;10.10;99.90;;;;;;5035110;28;20217;-82
2022/10/23 04:16:52;;;;;;;9.67;7.10;;;9.30;60.00;;;;;;5035410;28;20695;-80
2022/10/23 04:19:17;;;;;;;10.07;7.33;;;10.40;1.00;;;;;;5035061;28;20196;-80
2022/10/23 04:21:43;;;;;;;10.27;7.40;;;10.60;1.00;;;;;;5043789;28;20193;-80
2022/10/23 04:24:09;;;;;;;10.03;7.67;;;9.20;21.00;;;;;;5035563;28;20207;-78
2022/10/23 04:26:35;;;;;;;9.57;7.30;;;9.40;99.90;;;;;;5035666;28;20266;-78
2022/10/23 04:29:01;;;;;;;10.63;7.17;;;10.10;1.00;;;;;;5035733;28;20286;-81
2022/10/23 04:31:26;;;;;;;11.53;7.30;;;9.50;1.00;;;;;;5034230;28;20586;-79
2022/10/23 04:33:52;;;;;;;11.30;7.27;;;9.40;1.00;;;;;;5034953;28;20320;-80
2022/10/23 04:36:17;;;;;;;9.77;7.87;;;9.60;1.00;;;;;;5036260;28;20273;-79
2022/10/23 04:38:43;;;;;;;9.83;7.07;;;10.40;1.00;;;;;;5035229;28;20183;-80
2022/10/23 04:41:09;;;;;;;11.00;7.60;;;10.30;1.00;;;;;;5034474;28;20237;-80
2022/10/23 04:43:34;;;;;;;10.30;6.80;;;10.60;99.90;;;;;;5035080;28;20622;-78
2022/10/23 04:46:00;;;;;;;9.30;7.30;;;9.40;99.90;;;;;;5034035;28;20218;-81
2022/10/23 04:48:26;;;;;;;10.20;8.00;;;10.70;27.30;;;;;;5036262;28;20224;-81
2022/10/23 04:50:59;;;;;;;12.20;8.23;;;9.00;99.90;;;;;;5036322;28;20174;-79
2022/10/23 04:53:26;;;;;;;12.37;7.83;;;9.00;1.00;;;;;;5035402;28;20183;-78
2022/10/23 04:55:54;;;;;;;12.20;8.03;;;8.90;99.90;;;;;;5036007;28;20194;-80
2022/10/23 04:58:20;;;;;;;11.57;8.63;;;9.60;1.00;;;;;;5034433;28;20208;-81
2022/10/23 05:00:47;;;;;;;14.37;8.30;;;9.80;99.90;;;;;;5036365;28;20233;-80
2022/10/23 05:03:13;;;;;;;13.93;9.37;;;8.90;1.00;;;;;;5042170;28;20186;-80
2022/10/23 05:05:39;;;;;;;10.57;7.90;;;9.10;1.00;;;;;;5034807;28;20211;-81
2022/10/23 05:08:05;;;;;;;12.80;8.57;;;8.80;99.90;;;;;;5035133;28;20558;-77
2022/10/23 05:10:30;;;;;;;13.80;8.90;;;10.10;99.90;;;;;;5034464;28;20275;-80
2022/10/23 05:12:56;;;;;;;13.80;8.40;;;10.10;25.60;;;;;;5035049;28;20191;-82
2022/10/23 05:15:21;;;;;;;10.07;8.17;;;9.00;99.90;;;;;;5033950;28;20216;-83
2022/10/23 05:17:51;;;;;;;11.37;8.20;;;9.50;99.90;;;;;;5028971;28;20265;-79
2022/10/23 05:20:21;;;;;;;11.73;8.23;;;9.70;1.00;;;;;;5035322;28;20201;-80
2022/10/23 05:22:51;;;;;;;12.73;8.77;;;9.40;99.90;;;;;;5034553;28;20209;-81
2022/10/23 05:25:17;;;;;;;9.57;7.67;;;9.90;99.90;;;;;;5034199;28;20217;-79
2022/10/23 05:27:43;;;;;;;10.33;8.17;;;9.90;1.00;;;;;;5035586;28;20177;-82
2022/10/23 05:30:10;;;;;;;10.97;7.97;;;9.00;1.00;;;;;;5033888;28;20209;-81
2022/10/23 05:32:36;;;;;;;10.33;7.63;;;8.90;99.90;;;;;;5034454;28;20222;-80
2022/10/23 05:35:08;;;;;;;8.47;7.03;;;9.00;1.00;;;;;;5035604;28;20682;-79
2022/10/23 05:37:36;;;;;;;9.97;7.20;;;8.90;99.90;;;;;;5036032;28;20181;-82
2022/10/23 05:40:01;;;;;;;9.90;7.57;;;10.10;1.00;;;;;;5042464;28;20748;-80
2022/10/23 05:42:27;;;;;;;10.30;7.57;;;8.90;1.00;;;;;;5033936;28;20277;-78
2022/10/23 05:44:53;;;;;;;9.97;7.03;;;9.60;99.90;;;;;;5033755;28;20211;-80
2022/10/23 05:47:18;;;;;;;9.57;7.00;;;9.80;1.00;;;;;;5035203;28;20213;-79
2022/10/23 05:49:44;;;;;;;8.93;7.90;;;9.20;1.00;;;;;;5034522;28;20190;-83
2022/10/23 05:52:11;;;;;;;12.07;7.97;;;9.10;1.00;;;;;;5035192;28;20183;-78
2022/10/23 05:54:36;;;;;;;12.07;8.07;;;9.10;69.10;;;;;;5035160;28;20202;-81
2022/10/23 05:57:02;;;;;;;9.63;8.17;;;9.10;1.00;;;;;;5032727;28;20183;-83
2022/10/23 05:59:28;;;;;;;10.67;7.67;;;9.10;1.00;;;;;;5033424;28;20179;-80
2022/10/23 06:01:54;;;;;;;9.87;7.07;;;9.50;1.00;;;;;;5036140;28;20179;-80
2022/10/23 06:04:19;;;;;;;8.10;6.77;;;10.10;99.90;;;;;;5030996;28;20261;-78
2022/10/23 06:06:46;;;;;;;8.83;6.93;;;9.10;1.00;;;;;;5032543;28;21350;-79
2022/10/23 06:09:12;;;;;;;9.13;7.30;;;9.80;99.90;;;;;;5034878;28;20301;-77
2022/10/23 06:11:38;;;;;;;9.97;6.70;;;9.50;25.50;;;;;;5035147;28;20649;-80
2022/10/23 06:14:05;;;;;;;8.63;6.73;;;9.20;1.00;;;;;;5032223;28;20210;-82
2022/10/23 06:16:31;;;;;;;8.37;6.90;;;9.60;99.90;;;;;;5035282;28;20197;-80
2022/10/23 06:18:57;;;;;;;7.70;6.33;;;9.50;99.90;;;;;;5034293;28;20727;-81
2022/10/23 06:21:23;;;;;;;7.83;6.23;;;9.50;99.90;;;;;;5032453;28;20240;-79
2022/10/23 06:23:48;;;;;;;9.07;6.47;;;9.20;83.40;;;;;;5030070;28;20181;-82
2022/10/23 06:26:16;;;;;;;9.90;6.70;;;9.30;99.90;;;;;;5031546;28;20208;-80
2022/10/23 06:28:42;;;;;;;8.03;5.90;;;9.50;1.00;;;;;;5033367;28;20233;-81
2022/10/23 06:31:11;;;;;;;7.43;5.97;;;10.90;1.00;;;;;;5030804;28;20182;-80
2022/10/23 06:33:36;;;;;;;7.40;6.70;;;9.30;99.90;;;;;;5031855;28;20564;-81
2022/10/23 06:36:04;;;;;;;9.90;6.73;;;9.80;1.00;;;;;;5031402;28;20207;-80
2022/10/23 06:38:35;;;;;;;7.10;6.20;;;9.40;1.00;;;;;;5035021;28;20655;-80
2022/10/23 06:41:01;;;;;;;8.77;5.53;;;10.10;99.90;;;;;;5034206;28;20182;-81
2022/10/23 06:43:27;;;;;;;7.37;6.00;;;10.20;99.90;;;;;;5032668;28;20766;-84
2022/10/23 06:45:52;;;;;;;6.13;5.53;;;9.60;99.90;;;;;;5033841;28;20810;-82
2022/10/23 06:48:18;;;;;;;6.53;5.30;;;9.70;99.90;;;;;;5035512;28;20262;-84
2022/10/23 06:50:43;;;;;;;6.77;5.53;;;10.10;99.90;;;;;;5031550;28;20190;-84
2022/10/23 06:53:11;;;;;;;8.70;5.80;;;10.20;99.90;;;;;;5032757;28;20182;-85
2022/10/23 06:55:38;;;;;;;7.10;5.03;;;9.80;99.90;;;;;;5032608;28;20221;-79
2022/10/23 06:58:09;;;;;;;5.90;5.30;;;10.00;1.00;;;;;;5033137;28;20182;-80
2022/10/23 07:00:37;;;;;;;7.70;5.47;;;10.00;1.00;;;;;;5033842;28;20187;-80
2022/10/23 07:03:04;;;;;;;6.60;5.37;;;10.10;1.00;;;;;;5032999;28;20194;-78
2022/10/23 07:05:29;;;;;;;10.30;5.07;;;10.20;1.00;;;;;;5036519;28;20217;-79
2022/10/23 07:07:55;;;;;;;11.40;5.20;;;10.50;65.50;;;;;;5036231;28;20201;-81
2022/10/23 07:10:21;;;;;;;6.35;4.95;;;10.60;1.00;;;;;;5036508;28;20188;-78
2022/10/23 07:12:47;;;;;;;5.07;4.38;;;11.30;99.90;;;;;;5038457;28;20731;-80
2022/10/23 07:15:14;;;;;;;6.10;4.85;;;10.50;99.90;;;;;;5033241;28;20583;-80
2022/10/23 07:17:39;;;;;;;6.20;4.90;;;10.60;1.00;;;;;;5037148;28;20761;-78
2022/10/23 07:20:05;;;;;;;7.65;5.18;;;10.60;99.90;;;;;;5035249;28;20277;-80
2022/10/23 07:22:31;;;;;;;5.80;4.50;;;10.60;99.90;;;;;;5034520;28;20655;-80
2022/10/23 07:24:57;;;;;;;7.03;4.70;;;10.90;99.90;;;;;;5037725;28;20283;-81
2022/10/23 07:27:22;;;;;;;10.73;5.00;;;11.50;58.90;;;;;;5036912;28;20237;-80
2022/10/23 07:29:51;;;;;;;7.88;5.55;;;11.70;1.00;;;;;;5030341;28;20187;-80
2022/10/23 07:32:18;;;;;;;6.40;5.38;;;10.80;99.90;;;;;;5031485;28;20190;-80
2022/10/23 07:34:44;;;;;;;7.15;5.30;;;10.80;15.30;;;;;;5038265;28;20206;-81
2022/10/23 07:37:09;;;;;;;6.25;4.95;;;10.90;99.90;;;;;;5031148;28;21264;-81
2022/10/23 07:39:35;;;;;;;7.82;4.95;;;11.30;99.90;;;;;;5033774;28;20191;-81
2022/10/23 07:42:01;;;;;;;5.45;4.70;;;11.60;1.70;;;;;;5036420;28;20216;-81
2022/10/23 07:44:26;;;;;;;6.38;4.57;;;11.10;1.00;;;;;;5049664;28;20225;-78
2022/10/23 07:46:52;;;;;;;6.70;4.75;;;11.20;1.00;;;;;;5036230;28;20186;-78
2022/10/23 07:49:17;;;;;;;6.40;4.50;;;11.30;1.00;;;;;;5035396;28;20183;-79
2022/10/23 07:51:43;;;;;;;5.78;4.13;;;11.50;99.90;;;;;;5034182;28;20190;-79
2022/10/23 07:54:11;;;;;;;5.32;4.43;;;11.50;99.90;;;;;;5041914;28;20198;-80
2022/10/23 07:56:36;;;;;;;6.78;4.88;;;11.90;99.90;;;;;;5032186;28;20179;-78
2022/10/23 07:59:02;;;;;;;6.00;4.38;;;11.60;99.90;;;;;;5029767;28;20527;-79
2022/10/23 08:01:37;;;;;;;5.47;4.97;;;11.70;99.90;;;;;;5026932;28;20244;-77
2022/10/23 08:04:03;;;;;;;5.50;4.75;;;11.90;61.50;;;;;;5025803;28;20201;-78
2022/10/23 08:06:29;;;;;;;5.10;4.10;;;11.80;79.10;;;;;;5023038;28;20246;-78
2022/10/23 08:08:55;;;;;;;7.25;4.90;;;11.90;99.70;;;;;;5034135;28;20234;-75
2022/10/23 08:11:26;;;;;;;6.38;4.68;;;12.10;99.90;;;;;;5025899;28;20236;-79
2022/10/23 08:13:54;;;;;;;7.00;4.85;;;12.00;34.10;;;;;;5029968;28;20183;-79
2022/10/23 08:16:20;;;;;;;6.40;4.55;;;12.20;91.10;;;;;;5024229;28;20187;-79
2022/10/23 08:18:47;;;;;;;7.45;5.20;;;12.00;97.80;;;;;;5023474;28;20183;-76
2022/10/23 08:21:12;;;;;;;6.20;5.20;;;11.90;99.90;;;;;;5023076;28;20190;-79
2022/10/23 08:23:38;;;;;;;6.07;5.20;;;12.30;99.90;;;;;;5022971;28;20499;-78
2022/10/23 08:26:05;;;;;;;6.43;4.82;;;12.30;99.90;;;;;;5034186;28;20218;-80
2022/10/23 08:28:31;;;;;;;7.30;4.40;;;12.30;99.90;;;;;;5025571;28;20664;-78
2022/10/23 08:30:57;;;;;;;7.20;4.15;;;12.40;11.40;;;;;;5025060;28;20187;-78
2022/10/23 08:33:23;;;;;;;6.75;4.18;;;13.00;1.00;;;;;;5026038;28;20215;-83
2022/10/23 08:35:49;;;;;;;6.70;4.35;;;12.70;1.00;;;;;;5025915;28;20202;-81
2022/10/23 08:38:15;;;;;;;6.85;4.07;;;12.90;1.00;;;;;;5031221;28;20198;-78
2022/10/23 08:40:46;;;;;;;6.22;4.35;;;13.00;1.00;;;;;;5033991;28;20191;-79
2022/10/23 08:43:19;;;;;;;7.40;4.35;;;13.20;1.00;;;;;;5034940;28;20189;-80
2022/10/23 08:45:51;;;;;;;5.60;3.95;;;13.40;1.00;;;;;;5035775;28;20583;-82
2022/10/23 08:48:24;;;;;;;6.57;3.38;;;13.50;1.00;;;;;;5033534;28;20249;-81
2022/10/23 08:51:00;;;;;;;10.20;3.50;;;13.60;1.00;;;;;;5035076;28;20446;-80
2022/10/23 08:53:37;;;;;;;4.75;3.70;;;13.70;99.90;;;;;;5036403;28;20564;-80
2022/10/23 08:56:11;;;;;;;4.75;3.10;;;13.90;99.90;;;;;;5036423;28;20209;-81
2022/10/23 08:58:44;;;;;;;7.10;3.90;;;14.00;99.90;;;;;;5033781;28;20182;-82
2022/10/23 09:01:37;;;;;;;6.28;3.15;;;14.20;99.90;;;;;;5033099;28;20235;-80
2022/10/23 09:04:04;;;;;;;4.47;3.00;;;14.20;99.90;;;;;;5036505;28;21010;-81
2022/10/23 09:06:45;;;;;;;6.65;3.20;;;14.30;99.90;;;;;;5030036;28;20257;-81
2022/10/23 09:09:20;;;;;;;5.65;2.80;;;14.50;99.90;;;;;;5032308;28;20198;-81
2022/10/23 09:12:12;;;;;;;4.32;3.17;;;14.60;99.90;;;;;;5022424;28;20865;-84
2022/10/23 09:15:12;;;;;;;4.40;2.42;;;14.70;99.90;;;;;;5029177;28;20253;-83
2022/10/23 09:17:40;;;;;;;3.05;2.25;;;14.90;99.90;;;;;;5032477;28;20689;-83
2022/10/23 09:20:26;;;;;;;4.05;2.53;;;15.00;99.90;;;;;;5027047;28;20202;-83
2022/10/23 09:22:59;;;;;;;5.68;2.25;;;15.00;99.90;;;;;;5037777;28;20214;-82
2022/10/23 09:25:36;;;;;;;3.45;2.35;;;15.20;99.90;;;;;;5037014;28;20213;-84
2022/10/23 09:28:01;;;;;;;4.82;2.40;;;15.30;99.90;;;;;;5031632;28;20185;-83
2022/10/23 09:30:41;;;;;;;3.38;2.47;;;15.40;99.90;;;;;;5033855;28;20819;-86
2022/10/23 09:33:21;;;;;;;5.38;2.28;;;15.40;99.90;;;;;;5031001;28;20194;-85
2022/10/23 09:35:59;;;;;;;3.72;2.50;;;15.50;99.90;;;;;;5037644;28;20206;-84
2022/10/23 09:38:32;;;;;;;3.67;2.15;;;15.40;99.90;;;;;;5034218;28;20190;-85
2022/10/23 09:41:33;;;;;;;4.38;2.20;;;15.50;99.90;;;;;;5041613;28;20206;-83
2022/10/23 09:44:26;;;;;;;4.80;2.28;;;15.70;99.90;;;;;;5030368;28;20244;-83
2022/10/23 09:46:54;;;;;;;3.45;2.35;;;15.70;99.90;;;;;;5033371;28;20186;-85
2022/10/23 09:49:32;;;;;;;3.08;2.00;;;15.60;99.90;;;;;;5035975;28;20186;-84
2022/10/23 09:52:04;;;;;;;2.22;1.70;;;15.70;99.90;;;;;;5034972;28;20181;-83
2022/10/23 09:54:38;;;;;;;4.95;2.00;;;15.80;99.90;;;;;;5036433;28;20203;-83
2022/10/23 09:57:42;;;;;;;4.95;2.22;;;15.80;99.90;;;;;;5034406;28;20260;-82
2022/10/23 10:00:14;;;;;;;4.93;2.55;;;15.90;99.90;;;;;;5035962;28;20209;-83
2022/10/23 10:02:42;;;;;;;4.68;2.20;;;15.90;99.90;;;;;;5035004;28;20236;-83
2022/10/23 10:05:25;;;;;;;3.80;2.13;;;15.90;99.90;;;;;;5033984;28;20218;-83
2022/10/23 10:08:27;;;;;;;5.43;2.13;;;15.70;99.90;;;;;;5036351;28;20669;-84
2022/10/23 10:11:15;;;;;;;5.35;1.60;;;15.90;99.90;;;;;;5037172;28;20185;-84
2022/10/23 10:13:59;;;;;;;2.95;1.80;;;15.90;89.20;;;;;;5034599;28;20182;-83
2022/10/23 10:17:00;;;;;;;3.70;2.17;;;16.00;89.80;;;;;;5034811;28;20264;-83
2022/10/23 10:19:31;;;;;;;4.57;2.40;;;15.90;90.20;;;;;;5017843;28;20234;-84
2022/10/23 10:22:22;;;;;;;4.20;2.22;;;16.10;92.90;;;;;;5037081;28;20470;-84
2022/10/23 10:25:16;;;;;;;3.00;1.85;;;16.10;93.20;;;;;;5035094;28;20262;-83
2022/10/23 10:27:54;;;;;;;4.05;2.05;;;16.20;91.60;;;;;;5036397;28;20202;-83
2022/10/23 10:30:22;;;;;;;3.40;1.85;;;16.30;82.90;;;;;;5035427;28;20178;-83
2022/10/23 10:32:55;;;;;;;4.10;1.80;;;16.40;65.60;;;;;;5033546;28;20422;-83
2022/10/23 10:35:41;;;;;;;5.68;2.03;;;16.40;67.60;;;;;;5031570;28;20209;-83
2022/10/23 10:38:28;;;;;;;3.10;1.80;;;16.60;51.40;;;;;;5031087;28;20277;-83
2022/10/23 10:41:18;;;;;;;2.90;1.80;;;16.60;51.40;;;;;;5033557;28;20203;-83
2022/10/23 10:44:28;;;;;;;3.55;1.90;;;16.70;48.60;;;;;;5033415;28;20183;-84
2022/10/23 10:47:24;;;;;;;4.13;2.13;;;17.00;31.40;;;;;;5024938;28;20317;-84
2022/10/23 10:50:18;;;;;;;4.80;1.50;;;17.00;23.50;;;;;;5028442;28;20401;-84
2022/10/23 10:53:00;;;;;;;2.15;1.35;;;17.00;23.20;;;;;;5027658;28;20297;-84
2022/10/23 10:55:32;;;;;;;3.78;1.77;;;17.10;16.30;;;;;;5028669;28;20225;-83
2022/10/23 10:58:17;;;;;;;2.22;1.50;;;17.20;9.30;;;;;;5026507;28;20543;-83
2022/10/23 11:00:45;;;;;;;2.72;1.35;;;17.10;13.30;;;;;;5035574;28;20185;-84
2022/10/23 11:03:16;;;;;;;3.78;1.63;;;17.10;18.20;;;;;;5030311;28;20209;-86
2022/10/23 11:05:45;;;;;;;3.03;1.38;;;17.30;11.00;;;;;;5036980;28;20202;-83
2022/10/23 11:08:26;;;;;;;5.00;1.45;;;17.30;12.90;;;;;;5031446;28;20202;-84
2022/10/23 11:11:04;;;;;;;2.53;1.33;;;17.50;4.00;;;;;;5037210;28;20262;-83
2022/10/23 11:13:39;;;;;;;3.40;1.50;;;17.60;1.00;;;;;;5028106;28;20186;-83
2022/10/23 11:16:10;;;;;;;3.13;1.15;;;17.60;1.00;;;;;;5028984;28;20202;-83
2022/10/23 11:18:39;;;;;;;2.15;1.20;;;17.70;1.00;;;;;;5034731;28;20676;-82
2022/10/23 11:21:37;;;;;;;5.93;1.77;;;17.80;1.00;;;;;;5038890;28;20189;-83
2022/10/23 11:24:34;;;;;;;2.53;1.30;;;17.90;1.00;;;;;;5037405;28;20434;-83
2022/10/23 11:27:15;;;;;;;4.93;1.73;;;18.00;1.00;;;;;;5036496;28;20601;-83
2022/10/23 11:29:50;;;;;;;4.38;1.55;;;18.00;1.00;;;;;;5037518;28;21327;-82
2022/10/23 11:32:40;;;;;;;3.72;1.48;;;18.00;1.00;;;;;;5037121;28;20596;-83
2022/10/23 11:35:18;;;;;;;2.50;1.45;;;18.10;1.00;;;;;;5035535;28;20238;-83
2022/10/23 11:37:43;;;;;;;3.47;1.65;;;18.20;1.00;;;;;;5037199;28;20182;-84
2022/10/23 11:40:09;;;;;;;2.97;1.40;;;18.30;1.00;;;;;;5036065;28;20189;-83
2022/10/23 11:42:38;;;;;;;2.38;1.17;;;18.30;1.00;;;;;;5037217;28;20186;-84
2022/10/23 11:45:23;;;;;;;2.42;1.60;;;18.50;1.00;;;;;;5036120;28;20211;-84
2022/10/23 11:48:00;;;;;;;5.25;1.50;;;18.60;1.00;;;;;;5036752;28;20186;-84
2022/10/23 11:50:42;;;;;;;2.90;1.45;;;18.60;1.00;;;;;;5038435;28;20213;-84
2022/10/23 11:53:31;;;;;;;6.65;1.50;;;18.80;1.00;;;;;;5037299;28;20299;-83
2022/10/23 11:56:05;;;;;;;3.42;1.75;;;18.80;1.00;;;;;;5037074;28;20210;-83
2022/10/23 11:58:47;;;;;;;2.50;1.55;;;18.80;1.00;;;;;;5034457;28;20558;-84
2022/10/23 12:01:35;;;;;;;5.60;1.50;;;18.80;1.00;;;;;;5036143;28;20247;-84
2022/10/23 12:04:00;;;;;;;3.03;1.50;;;18.70;1.00;;;;;;5036922;28;20272;-82
2022/10/23 12:06:38;;;;;;;4.90;1.80;;;18.60;1.00;;;;;;5036257;28;20246;-81
2022/10/23 12:09:20;;;;;;;5.35;2.05;;;18.60;1.00;;;;;;5044143;28;20202;-80
2022/10/23 12:11:50;;;;;;;2.38;1.67;;;18.50;1.00;;;;;;5035255;28;20174;-80
2022/10/23 12:14:28;;;;;;;3.45;1.58;;;18.50;1.00;;;;;;5034192;28;20617;-79
2022/10/23 12:16:54;;;;;;;3.42;1.83;;;18.50;1.00;;;;;;5036274;28;20187;-79
2022/10/23 12:19:25;;;;;;;2.95;1.70;;;18.40;1.00;;;;;;5036183;28;20182;-78
2022/10/23 12:22:00;;;;;;;4.00;1.45;;;18.40;1.00;;;;;;5034761;28;20290;-78
2022/10/23 12:24:39;;;;;;;3.72;1.73;;;18.30;1.00;;;;;;5037099;28;20284;-80
2022/10/23 12:27:32;;;;;;;5.57;1.35;;;18.40;1.00;;;;;;5037411;28;20708;-80
2022/10/23 12:30:08;;;;;;;2.70;1.60;;;18.50;1.00;;;;;;5035827;28;20190;-80
2022/10/23 12:33:05;;;;;;;3.45;1.60;;;18.40;1.00;;;;;;5035028;28;20186;-81
2022/10/23 12:35:55;;;;;;;2.20;1.50;;;18.50;1.00;;;;;;5036064;28;20206;-81
2022/10/23 12:38:26;;;;;;;3.80;1.58;;;18.50;1.00;;;;;;5034218;28;20189;-80
2022/10/23 12:40:59;;;;;;;2.90;1.52;;;18.50;1.00;;;;;;5033813;28;20183;-80
2022/10/23 12:43:29;;;;;;;3.38;1.50;;;18.50;1.00;;;;;;5030366;28;20186;-80
2022/10/23 12:46:01;;;;;;;2.75;1.40;;;18.50;1.00;;;;;;5034703;28;20213;-80
2022/10/23 12:48:27;;;;;;;1.27;1.00;;;18.50;1.00;;;;;;5034128;28;20260;-80
2022/10/23 12:50:54;;;;;;;3.42;1.60;;;18.60;1.00;;;;;;5033731;28;20235;-80
2022/10/23 12:53:21;;;;;;;2.47;1.60;;;18.60;1.00;;;;;;5035425;28;20190;-80
2022/10/23 12:55:59;;;;;;;4.68;1.70;;;18.70;1.00;;;;;;5035442;28;20740;-80
2022/10/23 12:58:31;;;;;;;4.07;1.55;;;18.70;1.00;;;;;;5036764;28;20677;-80
2022/10/23 13:00:59;;;;;;;2.45;1.27;;;19.80;1.00;;;;;;5036282;28;20206;-80
2022/10/23 13:03:28;;;;;;;2.83;1.10;;;18.80;1.00;;;;;;5035966;28;20187;-80
2022/10/23 13:06:01;;;;;;;2.92;1.48;;;18.80;1.00;;;;;;5034420;28;20207;-80
2022/10/23 13:08:40;;;;;;;3.13;1.40;;;19.00;1.00;;;;;;5042629;28;20697;-81
2022/10/23 13:11:12;;;;;;;3.15;1.08;;;18.90;1.00;;;;;;5034793;28;20182;-81
2022/10/23 13:13:40;;;;;;;2.20;1.02;;;18.80;1.00;;;;;;5034211;28;20175;-80
2022/10/23 13:16:22;;;;;;;2.30;0.93;;;18.80;1.00;;;;;;5036400;28;20202;-81